Time;durP1;ratioP1;P1;durP2;ratioP2;P2;SDS_P1;SDS_P2;PMS_P1;PMS_P2;Temp;Humidity;BMP_temperature;BMP_pressure;BME280_temperature;BME280_humidity;BME280_pressure;Samples;Min_cycle;Max_cycle;Signal;HPM_P1;HPM_P2
2021/01/07 00:02:00;;;;;;;18.63;9.00;;;;;;;5.51;60.47;101395.81;4943556;28;114644;-66
2021/01/07 00:04:26;;;;;;;16.88;8.88;;;;;;;5.50;60.32;101383.59;4912164;28;123105;-66
2021/01/07 00:06:53;;;;;;;17.98;8.25;;;;;;;5.50;60.57;101383.59;4946636;28;124743;-65
2021/01/07 00:09:22;;;;;;;16.55;8.13;;;;;;;5.50;60.61;101388.84;4942326;28;115596;-65
2021/01/07 00:11:51;;;;;;;16.50;8.07;;;;;;;5.50;60.52;101383.59;4925764;28;113777;-65
2021/01/07 00:14:19;;;;;;;16.75;8.63;;;;;;;5.47;60.52;101384.50;4938421;28;124198;-65
2021/01/07 00:16:45;;;;;;;18.05;7.65;;;;;;;5.46;60.42;101388.03;4942081;28;123791;-66
2021/01/07 00:19:12;;;;;;;14.73;8.20;;;;;;;5.45;60.03;101385.41;4947711;28;114580;-66
2021/01/07 00:21:39;;;;;;;15.38;7.82;;;;;;;5.44;60.34;101383.66;4952829;28;113521;-66
2021/01/07 00:24:06;;;;;;;15.23;8.30;;;;;;;5.44;60.56;101388.91;4944825;28;124748;-65
2021/01/07 00:26:33;;;;;;;17.33;8.68;;;;;;;5.43;60.36;101381.94;4950965;28;123758;-65
2021/01/07 00:29:00;;;;;;;16.02;8.48;;;;;;;5.41;60.46;101375.84;4924260;28;114559;-65
2021/01/07 00:31:27;;;;;;;13.65;7.28;;;;;;;5.40;60.48;101376.72;4928404;28;113741;-65
2021/01/07 00:33:54;;;;;;;13.85;7.72;;;;;;;5.38;60.31;101378.50;4947666;28;124300;-65
2021/01/07 00:36:21;;;;;;;16.73;7.05;;;;;;;5.38;60.58;101373.25;4936258;28;124595;-65
2021/01/07 00:38:47;;;;;;;14.45;7.28;;;;;;;5.36;60.89;101364.53;4944907;28;114481;-65
2021/01/07 00:41:18;;;;;;;15.13;7.50;;;;;;;5.35;60.48;101368.03;4949654;28;114940;-65
2021/01/07 00:43:46;;;;;;;11.88;6.80;;;;;;;5.36;60.68;101369.78;4919701;28;124010;-66
2021/01/07 00:46:13;;;;;;;11.10;6.32;;;;;;;5.35;60.63;101368.03;4931376;28;123773;-65
2021/01/07 00:48:40;;;;;;;11.10;6.70;;;;;;;5.34;60.33;101366.31;4941676;28;114267;-65
2021/01/07 00:51:07;;;;;;;12.98;6.88;;;;;;;5.33;60.44;101364.56;4933333;28;113406;-66
2021/01/07 00:53:35;;;;;;;12.23;6.65;;;;;;;5.31;60.68;101366.34;4933158;28;123869;-66
2021/01/07 00:56:02;;;;;;;13.45;6.47;;;;;;;5.31;60.49;101366.34;4934776;28;126392;-65
2021/01/07 00:58:34;;;;;;;12.38;6.72;;;;;;;5.30;60.72;101359.38;4919202;28;115129;-65
2021/01/07 01:01:01;;;;;;;11.73;6.43;;;;;;;5.30;60.58;101356.75;4931329;28;114019;-66
2021/01/07 01:03:28;;;;;;;14.15;6.20;;;;;;;5.29;60.47;101357.63;4948005;28;124639;-65
2021/01/07 01:05:54;;;;;;;11.23;5.93;;;;;;;5.28;60.46;101354.16;4943222;28;124042;-67
2021/01/07 01:08:21;;;;;;;12.50;6.75;;;;;;;5.30;60.69;101354.13;4931583;28;113174;-66
2021/01/07 01:10:48;;;;;;;11.80;5.93;;;;;;;5.28;60.73;101351.53;4939903;28;114287;-66
2021/01/07 01:13:15;;;;;;;13.52;6.18;;;;;;;5.29;60.70;101350.63;4929551;28;124044;-67
2021/01/07 01:15:42;;;;;;;12.43;6.50;;;;;;;5.30;60.73;101349.75;4928459;28;122071;-66
2021/01/07 01:18:09;;;;;;;12.23;5.95;;;;;;;5.31;60.49;101345.34;4941779;28;114342;-66
2021/01/07 01:20:36;;;;;;;12.55;6.30;;;;;;;5.30;60.68;101348.88;4930225;28;114197;-66
2021/01/07 01:23:05;;;;;;;10.18;6.03;;;;;;;5.28;60.83;101345.41;4945252;28;127580;-66
2021/01/07 01:25:33;;;;;;;13.00;6.10;;;;;;;5.29;60.68;101347.13;4930488;28;123862;-66
2021/01/07 01:28:00;;;;;;;11.93;6.80;;;;;;;5.29;60.40;101352.38;4938838;28;114696;-66
2021/01/07 01:30:27;;;;;;;12.77;6.25;;;;;;;5.28;60.74;101350.66;4946092;28;114157;-66
2021/01/07 01:32:55;;;;;;;10.57;6.40;;;;;;;5.28;60.76;101362.03;4948415;28;124050;-66
2021/01/07 01:35:22;;;;;;;11.73;6.13;;;;;;;5.30;60.52;101359.38;4942627;28;124009;-65
2021/01/07 01:37:49;;;;;;;11.95;6.45;;;;;;;5.30;60.63;101359.38;4947282;28;114855;-66
2021/01/07 01:40:16;;;;;;;12.05;6.25;;;;;;;5.30;60.68;101359.38;4927171;28;112809;-66
2021/01/07 01:42:47;;;;;;;9.65;6.13;;;;;;;5.29;60.35;101347.13;4936291;28;123085;-66
2021/01/07 01:45:14;;;;;;;11.57;6.13;;;;;;;5.28;60.58;101351.53;4939473;28;124865;-67
2021/01/07 01:47:40;;;;;;;13.18;6.18;;;;;;;5.29;60.31;101352.38;4944963;28;115330;-66
2021/01/07 01:50:07;;;;;;;11.10;6.18;;;;;;;5.28;60.67;101355.91;4929005;28;114971;-66
2021/01/07 01:52:36;;;;;;;10.98;6.35;;;;;;;5.28;60.44;101350.66;4930229;28;123146;-66
2021/01/07 01:55:04;;;;;;;12.93;6.35;;;;;;;5.26;60.53;101348.91;4925664;28;125564;-66
2021/01/07 01:57:32;;;;;;;13.65;6.32;;;;;;;5.25;60.44;101349.81;4943858;28;114174;-66
2021/01/07 01:59:59;;;;;;;12.10;6.88;;;;;;;5.25;60.50;101356.81;4913894;28;112875;-66
2021/01/07 02:02:26;;;;;;;10.88;6.32;;;;;;;5.22;60.40;101352.47;4939447;28;124117;-66
2021/01/07 02:04:52;;;;;;;14.73;6.72;;;;;;;5.22;60.29;101346.38;4946768;28;124557;-67
2021/01/07 02:07:24;;;;;;;10.05;6.07;;;;;;;5.20;60.26;101349.03;4946304;28;114304;-66
2021/01/07 02:09:52;;;;;;;12.60;6.38;;;;;;;5.19;60.62;101349.91;4934009;28;113785;-66
2021/01/07 02:12:20;;;;;;;12.52;6.47;;;;;;;5.17;60.58;101349.06;4942793;28;124305;-64
2021/01/07 02:14:47;;;;;;;9.98;5.68;;;;;;;5.16;60.62;101351.69;4943699;28;124130;-65
2021/01/07 02:17:15;;;;;;;13.32;6.10;;;;;;;5.16;60.46;101352.59;4912731;28;114082;-65
2021/01/07 02:19:42;;;;;;;11.00;6.28;;;;;;;5.13;60.41;101347.38;4951275;28;114435;-65
2021/01/07 02:22:09;;;;;;;12.40;6.25;;;;;;;5.12;60.45;101345.63;4937141;28;124118;-65
2021/01/07 02:24:35;;;;;;;12.57;6.32;;;;;;;5.10;60.71;101347.41;4928352;28;122696;-65
2021/01/07 02:27:06;;;;;;;11.15;6.13;;;;;;;5.09;60.55;101345.69;4946604;28;114331;-64
2021/01/07 02:29:37;;;;;;;14.52;6.25;;;;;;;5.10;60.70;101341.28;4929192;28;114133;-65
2021/01/07 02:32:04;;;;;;;12.38;6.18;;;;;;;5.10;60.67;101342.16;4940371;28;124406;-65
2021/01/07 02:34:31;;;;;;;9.23;6.03;;;;;;;5.11;60.73;101346.53;4940245;28;123759;-65
2021/01/07 02:36:58;;;;;;;12.75;6.97;;;;;;;5.10;60.94;101339.53;4947304;28;115955;-65
2021/01/07 02:39:24;;;;;;;12.68;6.43;;;;;;;5.10;60.99;101342.16;4947207;28;115457;-66
2021/01/07 02:41:52;;;;;;;11.52;6.45;;;;;;;5.12;60.91;101337.75;4927514;28;122938;-65
2021/01/07 02:44:22;;;;;;;13.53;7.07;;;;;;;5.13;60.85;101336.88;4945105;22;661731;-68
2021/01/07 02:46:49;;;;;;;12.80;6.20;;;;;;;5.16;60.97;101341.19;4915159;28;113453;-68
2021/01/07 02:49:17;;;;;;;10.73;6.43;;;;;;;5.17;60.86;101338.53;4931651;28;114271;-68
2021/01/07 02:51:45;;;;;;;13.70;6.25;;;;;;;5.18;61.13;101340.28;4931454;28;123683;-69
2021/01/07 02:54:12;;;;;;;11.57;6.47;;;;;;;5.21;61.21;101339.38;4914326;28;123755;-69
2021/01/07 02:56:39;;;;;;;11.68;6.63;;;;;;;5.22;61.17;101335.88;4928513;28;114184;-69
2021/01/07 02:59:06;;;;;;;12.40;5.75;;;;;;;5.22;61.18;101336.72;4909426;28;114694;-68
2021/01/07 03:01:32;;;;;;;12.75;5.57;;;;;;;5.23;60.96;101338.44;4908668;28;124846;-69
2021/01/07 03:04:00;;;;;;;13.25;6.03;;;;;;;5.25;61.17;101331.44;4930773;28;124257;-69
2021/01/07 03:06:26;;;;;;;10.45;6.10;;;;;;;5.28;61.12;101329.66;4928916;28;114156;-69
2021/01/07 03:08:53;;;;;;;13.95;6.25;;;;;;;5.30;61.01;101333.13;4929439;28;113888;-68
2021/01/07 03:11:20;;;;;;;8.63;5.65;;;;;;;5.30;61.14;101333.13;4909938;28;124186;-68
2021/01/07 03:13:46;;;;;;;11.88;6.47;;;;;;;5.32;61.18;101326.94;4929036;28;124178;-68
2021/01/07 03:16:13;;;;;;;9.98;5.63;;;;;;;5.33;61.07;101327.81;4912913;28;114543;-68
2021/01/07 03:18:39;;;;;;;10.80;6.03;;;;;;;5.35;61.09;101326.03;4930573;28;114402;-68
2021/01/07 03:21:06;;;;;;;10.43;5.95;;;;;;;5.36;61.17;101322.50;4902285;28;124336;-68
2021/01/07 03:23:32;;;;;;;12.48;5.95;;;;;;;5.36;61.04;101317.25;4927547;28;123945;-69
2021/01/07 03:25:59;;;;;;;11.05;6.30;;;;;;;5.38;61.33;101320.72;4928193;28;115213;-68
2021/01/07 03:28:25;;;;;;;11.75;6.13;;;;;;;5.39;61.35;101323.34;4910073;28;114413;-68
2021/01/07 03:30:53;;;;;;;13.10;6.43;;;;;;;5.40;61.01;101324.19;4897033;28;123710;-68
2021/01/07 03:33:19;;;;;;;10.95;5.95;;;;;;;5.41;61.40;101320.69;4928253;28;123726;-69
2021/01/07 03:35:46;;;;;;;10.93;6.70;;;;;;;5.41;61.23;101315.44;4911507;28;114456;-69
2021/01/07 03:38:13;;;;;;;10.38;6.30;;;;;;;5.42;61.37;101317.16;4929570;28;114388;-69
2021/01/07 03:40:40;;;;;;;12.27;7.40;;;;;;;5.43;61.18;101313.66;4928635;28;123738;-69
2021/01/07 03:43:06;;;;;;;11.77;7.75;;;;;;;5.42;61.10;101314.53;4932130;28;124061;-69
2021/01/07 03:45:33;;;;;;;14.45;8.00;;;;;;;5.40;61.52;101304.03;4929814;28;114604;-70
2021/01/07 03:48:00;;;;;;;12.15;7.35;;;;;;;5.39;61.30;101306.72;4923039;28;113872;-69
2021/01/07 03:50:27;;;;;;;12.05;7.78;;;;;;;5.39;61.67;101311.97;4928989;28;123983;-69
2021/01/07 03:52:53;;;;;;;12.20;7.85;;;;;;;5.39;61.60;101306.72;4915566;28;123293;-69
2021/01/07 03:55:20;;;;;;;14.60;7.63;;;;;;;5.40;61.46;101300.56;4934040;28;114576;-69
2021/01/07 03:57:46;;;;;;;11.82;7.78;;;;;;;5.40;61.42;101308.44;4929451;28;114161;-69
2021/01/07 04:00:14;;;;;;;14.23;7.95;;;;;;;5.41;61.85;101311.03;4916715;28;123339;-69
2021/01/07 04:02:40;;;;;;;12.60;8.40;;;;;;;5.42;61.99;101301.41;4928438;28;123739;-69
2021/01/07 04:05:07;;;;;;;12.85;8.02;;;;;;;5.44;61.69;101302.25;4933302;28;114495;-69
2021/01/07 04:07:37;;;;;;;13.35;7.93;;;;;;;5.48;61.61;101301.28;4934576;28;113912;-69
2021/01/07 04:10:08;;;;;;;14.57;8.00;;;;;;;5.48;61.76;101298.66;4928635;28;123965;-69
2021/01/07 04:12:35;;;;;;;12.63;8.00;;;;;;;5.52;61.73;101305.63;4932125;28;124757;-69
2021/01/07 04:15:05;;;;;;;13.88;8.27;;;;;;;5.54;61.82;101300.31;4928827;28;115066;-69
2021/01/07 04:17:32;;;;;;;16.40;8.23;;;;;;;5.55;61.69;101295.03;4916517;28;114193;-69
2021/01/07 04:19:58;;;;;;;16.92;8.38;;;;;;;5.56;61.60;101288.06;4931843;28;124034;-69
2021/01/07 04:22:25;;;;;;;17.35;8.63;;;;;;;5.57;61.97;101282.75;4933691;28;124222;-69
2021/01/07 04:24:52;;;;;;;11.25;7.63;;;;;;;5.58;61.96;101281.88;4914635;28;113071;-69
2021/01/07 04:27:19;;;;;;;13.57;8.18;;;;;;;5.59;61.83;101278.31;4913126;28;113086;-69
2021/01/07 04:29:45;;;;;;;12.98;7.97;;;;;;;5.60;61.73;101284.47;4931774;28;123730;-69
2021/01/07 04:32:12;;;;;;;12.07;7.72;;;;;;;5.62;61.67;101278.28;4931674;28;124590;-69
2021/01/07 04:34:39;;;;;;;13.05;8.05;;;;;;;5.64;61.69;101281.75;4929433;28;114295;-69
2021/01/07 04:37:05;;;;;;;11.07;8.02;;;;;;;5.65;61.81;101273.00;4932724;28;115066;-69
2021/01/07 04:39:32;;;;;;;14.45;8.15;;;;;;;5.64;61.40;101276.50;4933380;28;123917;-70
2021/01/07 04:41:59;;;;;;;14.02;8.55;;;;;;;5.66;61.53;101279.97;4914109;28;124885;-69
2021/01/07 04:44:26;;;;;;;15.80;8.35;;;;;;;5.66;61.66;101274.72;4930601;28;114595;-69
2021/01/07 04:46:52;;;;;;;17.83;9.02;;;;;;;5.65;61.88;101267.72;4922008;28;113293;-69
2021/01/07 04:49:20;;;;;;;14.23;8.55;;;;;;;5.64;61.51;101271.25;4931245;28;124181;-69
2021/01/07 04:51:47;;;;;;;14.40;8.40;;;;;;;5.64;61.85;101268.63;4926087;28;123432;-69
2021/01/07 04:54:14;;;;;;;17.17;8.55;;;;;;;5.64;61.76;101268.63;4912975;28;113615;-70
2021/01/07 04:56:41;;;;;;;13.55;7.82;;;;;;;5.64;61.75;101265.97;4916420;28;113458;-69
2021/01/07 04:59:07;;;;;;;14.25;8.40;;;;;;;5.65;61.71;101267.72;4911169;28;123167;-69
2021/01/07 05:01:34;;;;;;;15.18;8.75;;;;;;;5.66;61.69;101269.44;4931025;28;123960;-69
2021/01/07 05:04:01;;;;;;;15.38;8.32;;;;;;;5.66;61.71;101261.56;4930678;28;115542;-69
2021/01/07 05:06:27;;;;;;;15.63;8.23;;;;;;;5.68;61.79;101265.94;4932048;28;114942;-70
2021/01/07 05:09:07;;;;;;;13.43;8.55;;;;;;;5.68;61.89;101260.69;4933533;28;124198;-69
2021/01/07 05:11:34;;;;;;;15.15;8.60;;;;;;;5.70;61.76;101256.25;4930985;28;123686;-70
2021/01/07 05:14:05;;;;;;;16.13;8.73;;;;;;;5.69;61.65;101262.41;4932614;28;114704;-69
2021/01/07 05:16:32;;;;;;;13.13;8.73;;;;;;;5.69;61.86;101262.41;4933173;28;113915;-69
2021/01/07 05:19:06;;;;;;;17.05;8.80;;;;;;;5.69;61.77;101259.78;4931232;28;123760;-69
2021/01/07 05:21:34;;;;;;;15.20;8.75;;;;;;;5.69;61.69;101258.03;4931851;28;123860;-69
2021/01/07 05:24:02;;;;;;;15.23;9.27;;;;;;;5.70;61.73;101258.91;4914931;28;114864;-69
2021/01/07 05:26:29;;;;;;;16.70;9.18;;;;;;;5.70;61.78;101253.63;4931691;28;112674;-69
2021/01/07 05:28:58;;;;;;;18.13;9.02;;;;;;;5.69;61.72;101252.78;4932070;28;124332;-69
2021/01/07 05:31:26;;;;;;;13.70;8.68;;;;;;;5.69;62.07;101247.53;4932735;28;124028;-70
2021/01/07 05:33:54;;;;;;;15.98;8.77;;;;;;;5.69;61.98;101251.88;4911502;28;112929;-69
2021/01/07 05:36:26;;;;;;;16.05;9.23;;;;;;;5.68;62.04;101247.53;4932115;28;113892;-69
2021/01/07 05:38:56;;;;;;;17.23;9.15;;;;;;;5.69;61.87;101241.38;4930600;28;123783;-69
2021/01/07 05:41:25;;;;;;;16.55;8.57;;;;;;;5.70;62.01;101248.38;4931993;28;123830;-69
2021/01/07 05:44:06;;;;;;;15.20;9.38;;;;;;;5.68;61.94;101244.91;4927634;28;114381;-69
2021/01/07 05:46:35;;;;;;;15.85;9.50;;;;;;;5.66;61.99;101243.16;4932954;28;114143;-70
2021/01/07 05:49:03;;;;;;;15.98;9.75;;;;;;;5.66;61.92;101237.91;4895683;28;123775;-69
2021/01/07 05:51:31;;;;;;;14.75;8.95;;;;;;;5.66;61.99;101237.91;4930715;28;124166;-69
2021/01/07 05:53:59;;;;;;;15.55;9.93;;;;;;;5.67;61.93;101238.81;4912497;28;115174;-69
2021/01/07 05:56:26;;;;;;;18.40;9.60;;;;;;;5.68;62.11;101239.66;4932333;28;114562;-69
2021/01/07 05:58:54;;;;;;;16.88;9.73;;;;;;;5.70;62.03;101243.13;4930964;28;125058;-69
2021/01/07 06:01:22;;;;;;;16.42;10.02;;;;;;;5.71;62.37;101234.31;4929767;28;124344;-69
2021/01/07 06:03:53;;;;;;;15.73;10.05;;;;;;;5.71;62.03;101234.31;4929449;28;114277;-69
2021/01/07 06:06:21;;;;;;;16.25;10.25;;;;;;;5.72;62.11;101236.06;4932350;28;113935;-69
2021/01/07 06:08:54;;;;;;;16.40;10.82;;;;;;;5.75;62.16;101230.78;4912100;28;123151;-70
2021/01/07 06:11:23;;;;;;;17.92;11.63;;;;;;;5.76;62.05;101227.22;4914770;28;123108;-69
2021/01/07 06:13:52;;;;;;;16.73;10.85;;;;;;;5.76;62.20;101227.22;4929320;28;114420;-69
2021/01/07 06:16:24;;;;;;;19.63;10.85;;;;;;;5.77;62.29;101234.25;4932322;28;113995;-69
2021/01/07 06:18:53;;;;;;;16.30;10.90;;;;;;;5.79;62.17;101237.69;4911538;28;122957;-69
2021/01/07 06:21:22;;;;;;;17.23;11.07;;;;;;;5.80;62.45;101227.16;4914535;28;123647;-69
2021/01/07 06:23:48;;;;;;;17.50;11.05;;;;;;;5.83;62.16;101239.38;4929631;28;114470;-69
2021/01/07 06:26:24;;;;;;;17.15;11.27;;;;;;;5.83;62.45;101236.75;4914643;28;113890;-70
2021/01/07 06:28:54;;;;;;;18.77;11.68;;;;;;;5.85;62.51;101229.69;4929447;28;124998;-70
2021/01/07 06:31:36;;;;;;;17.17;12.50;;;;;;;5.85;62.18;101232.31;4931613;28;124021;-70
2021/01/07 06:34:04;;;;;;;21.15;12.57;;;;;;;5.86;62.40;101234.06;4910619;28;114783;-70
2021/01/07 06:36:41;;;;;;;21.08;13.05;;;;;;;5.87;62.46;101235.78;4913895;28;113990;-70
2021/01/07 06:39:09;;;;;;;20.52;13.77;;;;;;;5.90;62.26;101234.88;4928509;28;124888;-70
2021/01/07 06:41:36;;;;;;;20.08;13.60;;;;;;;5.89;62.52;101239.25;4931263;28;124183;-69
2021/01/07 06:44:04;;;;;;;22.13;13.80;;;;;;;5.91;62.51;101240.06;4895063;28;114751;-69
2021/01/07 06:46:38;;;;;;;22.80;13.93;;;;;;;5.93;62.27;101240.91;4911096;28;112828;-69
2021/01/07 06:49:23;;;;;;;22.40;14.77;;;;;;;5.91;62.48;101232.19;4927811;28;124796;-69
2021/01/07 06:52:05;;;;;;;20.57;14.60;;;;;;;5.92;62.47;101239.19;4928238;28;123981;-69
2021/01/07 06:54:44;;;;;;;24.48;14.13;;;;;;;5.93;62.60;101240.91;4928061;28;114174;-69
2021/01/07 06:57:14;;;;;;;22.70;14.60;;;;;;;5.94;62.45;101237.41;4925468;28;113279;-69
2021/01/07 06:59:58;;;;;;;22.25;14.45;;;;;;;5.93;62.70;101240.91;4931479;28;124034;-69
2021/01/07 07:02:26;;;;;;;21.13;14.68;;;;;;;5.95;62.36;101233.94;4926830;28;124154;-69
2021/01/07 07:05:07;;;;;;;21.40;14.40;;;;;;;5.93;62.87;101235.66;4931045;28;114057;-69
2021/01/07 07:07:37;;;;;;;23.65;13.93;;;;;;;5.95;62.63;101235.63;4896349;28;114331;-70
2021/01/07 07:10:19;;;;;;;23.75;15.32;;;;;;;5.94;62.68;101232.16;4930688;28;125338;-69
2021/01/07 07:12:47;;;;;;;23.90;15.00;;;;;;;5.98;62.89;101233.84;4914057;28;122591;-69
2021/01/07 07:15:21;;;;;;;22.98;14.82;;;;;;;5.98;62.47;101239.09;4930821;28;114107;-69
2021/01/07 07:17:48;;;;;;;23.50;15.43;;;;;;;5.98;62.84;101239.09;4930093;28;114100;-69
2021/01/07 07:20:19;;;;;;;22.40;15.05;;;;;;;5.99;62.85;101240.84;4935027;28;125260;-69
2021/01/07 07:22:46;;;;;;;23.60;14.88;;;;;;;6.00;62.71;101242.56;4917096;28;124633;-69
2021/01/07 07:25:21;;;;;;;21.83;14.18;;;;;;;6.03;62.58;101247.78;4916587;28;114053;-70
2021/01/07 07:27:58;;;;;;;24.77;14.82;;;;;;;6.02;62.46;101246.03;4917301;28;113251;-69
2021/01/07 07:30:27;;;;;;;21.00;13.50;;;;;;;6.03;62.74;101242.53;4932676;28;124029;-69
2021/01/07 07:32:55;;;;;;;22.05;13.63;;;;;;;6.03;63.01;101239.88;4931772;28;124256;-69
2021/01/07 07:35:24;;;;;;;19.75;12.98;;;;;;;6.03;62.76;101237.25;4931270;28;115313;-69
2021/01/07 07:37:51;;;;;;;20.88;13.73;;;;;;;6.03;62.90;101242.53;4930237;28;114446;-69
2021/01/07 07:40:34;;;;;;;17.95;12.63;;;;;;;6.03;62.59;101241.66;4914723;28;123216;-69
2021/01/07 07:43:03;;;;;;;20.88;12.90;;;;;;;6.04;62.76;101243.38;4930408;28;124509;-69
2021/01/07 07:45:31;;;;;;;19.27;11.98;;;;;;;6.04;62.54;101244.22;4925826;28;114407;-69
2021/01/07 07:47:59;;;;;;;15.75;11.48;;;;;;;6.04;62.64;101244.22;4932873;28;113277;-69
2021/01/07 07:50:28;;;;;;;17.27;12.20;;;;;;;6.04;62.59;101249.50;4930237;28;124122;-69
2021/01/07 07:53:08;;;;;;;18.40;11.85;;;;;;;6.06;62.82;101245.97;4916051;28;122195;-69
2021/01/07 07:55:35;;;;;;;18.80;12.77;;;;;;;6.07;62.48;101252.97;4930344;28;114855;-69
2021/01/07 07:58:09;;;;;;;18.70;12.13;;;;;;;6.07;62.89;101247.72;4917193;28;113553;-69
2021/01/07 08:00:37;;;;;;;16.88;11.52;;;;;;;6.08;62.94;101252.06;4898677;28;123450;-69
2021/01/07 08:03:03;;;;;;;18.17;12.77;;;;;;;6.10;62.62;101252.91;4930238;28;123911;-69
2021/01/07 08:05:32;;;;;;;19.55;12.93;;;;;;;6.12;62.97;101261.63;4926830;28;113186;-69
2021/01/07 08:07:59;;;;;;;20.17;12.55;;;;;;;6.13;62.72;101252.84;4933682;28;113962;-69
2021/01/07 08:10:26;;;;;;;18.08;12.20;;;;;;;6.15;62.89;101251.06;4930278;28;124342;-69
2021/01/07 08:12:54;;;;;;;20.80;12.38;;;;;;;6.16;62.97;101252.78;4910849;28;123975;-69
2021/01/07 08:15:30;;;;;;;20.25;12.85;;;;;;;6.17;62.84;101255.38;4930638;28;114462;-69
2021/01/07 08:18:14;;;;;;;18.35;12.65;;;;;;;6.18;62.88;101261.53;4913835;28;113975;-70
2021/01/07 08:20:40;;;;;;;20.42;12.75;;;;;;;6.21;62.77;101266.69;4912822;28;123994;-69
2021/01/07 08:23:11;;;;;;;20.52;13.55;;;;;;;6.22;63.04;101263.19;4931869;28;123764;-69
2021/01/07 08:25:39;;;;;;;19.83;13.55;;;;;;;6.24;62.98;101266.66;4933009;28;115682;-69
2021/01/07 08:28:41;;;;;;;23.38;13.77;;;;;;;6.24;62.75;101262.25;4916083;28;114704;-71
2021/01/07 08:31:14;;;;;;;22.05;14.20;;;;;;;6.27;62.81;101266.56;4930108;28;124084;-69
2021/01/07 08:33:41;;;;;;;24.27;17.08;;;;;;;6.28;63.04;101263.06;4924845;28;123844;-69
2021/01/07 08:36:11;;;;;;;26.45;15.35;;;;;;;6.29;63.11;101264.81;4931772;28;114580;-69
2021/01/07 08:38:39;;;;;;;26.05;15.85;;;;;;;6.29;62.83;101264.81;4913639;28;113698;-68
2021/01/07 08:41:27;;;;;;;27.27;17.08;;;;;;;6.31;62.97;101268.28;4914665;28;123208;-69
2021/01/07 08:43:56;;;;;;;27.17;16.60;;;;;;;6.32;62.81;101269.97;4930207;28;124519;-68
2021/01/07 08:46:25;;;;;;;29.95;17.60;;;;;;;6.33;63.11;101266.47;4919549;23;112527;-68
2021/01/07 08:49:05;;;;;;;32.08;18.45;;;;;;;6.34;63.17;101260.28;4947875;28;114798;-67
2021/01/07 08:51:45;;;;;;;30.17;18.52;;;;;;;6.37;63.21;101257.63;4929529;28;124531;-67
2021/01/07 08:54:17;;;;;;;31.17;18.90;;;;;;;6.37;62.86;101252.34;4938390;28;123941;-67
2021/01/07 08:56:45;;;;;;;34.17;19.75;;;;;;;6.39;62.89;101250.53;4937644;28;114493;-68
2021/01/07 08:59:22;;;;;;;34.55;20.52;;;;;;;6.41;63.04;101258.41;4940576;28;113857;-67
2021/01/07 09:01:51;;;;;;;34.78;20.02;;;;;;;6.45;62.90;101253.97;4941501;28;123826;-69
2021/01/07 09:04:22;;;;;;;31.33;19.88;;;;;;;6.47;63.25;101257.41;4924714;28;123022;-67
2021/01/07 09:06:59;;;;;;;35.88;20.80;;;;;;;6.48;63.07;101256.50;4931958;28;114279;-68
2021/01/07 09:09:27;;;;;;;30.85;19.25;;;;;;;6.51;63.19;101264.34;4947001;28;114142;-67
2021/01/07 09:12:30;;;;;;;30.95;18.95;;;;;;;6.51;62.89;101264.34;4941010;28;124229;-68
2021/01/07 09:15:04;;;;;;;29.25;17.65;;;;;;;6.53;62.96;101262.53;4896970;28;125409;-67
2021/01/07 09:17:46;;;;;;;25.98;17.23;;;;;;;6.54;63.08;101264.28;4934371;28;115646;-67
2021/01/07 09:20:18;;;;;;;27.90;17.45;;;;;;;6.55;63.03;101260.75;4928076;28;115287;-67
2021/01/07 09:22:46;;;;;;;24.38;15.15;;;;;;;6.56;63.27;101267.75;4928355;28;123996;-67
2021/01/07 09:25:19;;;;;;;23.23;15.00;;;;;;;6.58;63.35;101260.69;4928497;28;123113;-68
2021/01/07 09:27:47;;;;;;;21.48;14.60;;;;;;;6.60;63.00;101253.63;4911026;28;114049;-68
2021/01/07 09:30:14;;;;;;;20.15;13.57;;;;;;;6.61;63.24;101255.34;4930029;28;114864;-68
2021/01/07 09:32:42;;;;;;;21.70;14.45;;;;;;;6.63;63.29;101253.56;4933625;28;124198;-67
2021/01/07 09:35:11;;;;;;;20.88;13.10;;;;;;;6.65;62.94;101257.03;4907797;28;122638;-67
2021/01/07 09:37:57;;;;;;;16.75;11.65;;;;;;;6.65;63.34;101257.03;4929756;28;114714;-68
2021/01/07 09:40:24;;;;;;;19.02;13.18;;;;;;;6.64;62.91;101255.28;4928747;28;114677;-67
2021/01/07 09:42:51;;;;;;;16.45;11.57;;;;;;;6.65;62.95;101257.03;4932022;28;123513;-67
2021/01/07 09:45:17;;;;;;;17.02;11.45;;;;;;;6.67;62.96;101255.22;4943885;28;123589;-67
2021/01/07 09:47:44;;;;;;;15.70;10.43;;;;;;;6.67;62.90;101252.59;4931718;28;113222;-68
2021/01/07 09:50:13;;;;;;;15.30;9.90;;;;;;;6.68;63.17;101251.66;4936574;28;114001;-67
2021/01/07 09:52:40;;;;;;;14.98;9.13;;;;;;;6.69;63.12;101248.16;4915009;28;123465;-67
2021/01/07 09:55:08;;;;;;;13.20;8.65;;;;;;;6.71;63.03;101262.16;4908831;28;122667;-68
2021/01/07 09:57:36;;;;;;;14.13;8.82;;;;;;;6.72;62.88;101253.34;4933259;28;114599;-67
2021/01/07 10:00:06;;;;;;;14.98;9.32;;;;;;;6.76;63.20;101244.50;4933968;28;114060;-67
2021/01/07 10:02:34;;;;;;;13.50;8.88;;;;;;;6.79;63.24;101244.41;4909335;28;124840;-68
2021/01/07 10:05:01;;;;;;;10.52;7.47;;;;;;;6.82;63.06;101239.06;4932153;28;124827;-68
2021/01/07 10:07:27;;;;;;;11.70;7.55;;;;;;;6.82;62.92;101244.34;4915791;28;115359;-67
2021/01/07 10:09:54;;;;;;;10.30;7.00;;;;;;;6.85;63.14;101242.53;4936533;28;115073;-67
2021/01/07 10:12:20;;;;;;;9.43;6.65;;;;;;;6.85;63.09;101242.53;4906222;28;123841;-68
2021/01/07 10:14:47;;;;;;;10.02;7.18;;;;;;;6.86;62.93;101246.91;4936262;28;123865;-68
2021/01/07 10:17:14;;;;;;;10.30;7.53;;;;;;;6.88;63.06;101235.44;4933728;28;113850;-67
2021/01/07 10:19:40;;;;;;;11.40;7.45;;;;;;;6.91;62.99;101237.13;4933438;28;113979;-67
2021/01/07 10:22:14;;;;;;;10.25;7.43;;;;;;;6.93;63.14;101245.84;4915794;28;124172;-68
2021/01/07 10:24:47;;;;;;;9.02;7.30;;;;;;;6.95;63.00;101238.78;4914736;28;123846;-68
2021/01/07 10:27:17;;;;;;;11.93;8.18;;;;;;;6.97;63.25;101242.25;4923926;28;114325;-68
2021/01/07 10:29:45;;;;;;;10.80;8.00;;;;;;;7.01;63.18;101238.66;4931758;28;113617;-67
2021/01/07 10:32:15;;;;;;;10.88;8.27;;;;;;;7.04;62.93;101241.19;4939181;28;123819;-69
2021/01/07 10:34:47;;;;;;;12.45;8.70;;;;;;;7.06;63.08;101231.47;4910815;28;123848;-67
2021/01/07 10:37:17;;;;;;;11.13;8.23;;;;;;;7.08;62.81;101234.94;4932085;28;114036;-67
2021/01/07 10:39:46;;;;;;;12.55;7.95;;;;;;;7.08;63.05;101234.94;4932739;28;113937;-67
2021/01/07 10:42:15;;;;;;;10.90;7.75;;;;;;;7.09;63.14;101236.69;4914857;28;123968;-67
2021/01/07 10:44:44;;;;;;;10.25;8.00;;;;;;;7.10;63.18;101234.91;4932800;28;124450;-67
2021/01/07 10:47:12;;;;;;;9.32;7.05;;;;;;;7.12;62.99;101230.47;4933196;28;114972;-67
2021/01/07 10:49:42;;;;;;;9.13;7.15;;;;;;;7.13;62.89;101232.22;4922351;28;114253;-67
2021/01/07 10:52:10;;;;;;;7.70;5.95;;;;;;;7.14;62.82;101234.81;4936113;28;124152;-68
2021/01/07 10:54:45;;;;;;;9.35;5.95;;;;;;;7.15;63.13;101231.25;4928559;28;123906;-68
2021/01/07 10:57:35;;;;;;;7.47;5.68;;;;;;;7.16;63.13;101226.88;4926178;28;114588;-68
2021/01/07 11:00:07;;;;;;;6.45;5.30;;;;;;;7.19;62.74;101232.91;4950068;28;115106;-68
2021/01/07 11:02:58;;;;;;;7.00;5.40;;;;;;;7.18;62.87;101220.66;4939977;28;123891;-68
2021/01/07 11:05:25;;;;;;;7.25;5.07;;;;;;;7.21;62.94;101217.97;4923992;28;124089;-68
2021/01/07 11:08:07;;;;;;;7.50;5.78;;;;;;;7.22;63.02;101218.81;4916209;28;113700;-67
2021/01/07 11:10:35;;;;;;;7.03;5.15;;;;;;;7.27;62.87;101213.41;4915016;28;112928;-67
2021/01/07 11:13:03;;;;;;;8.18;5.60;;;;;;;7.30;62.90;101205.44;4930805;28;124291;-67
2021/01/07 11:15:29;;;;;;;6.53;4.47;;;;;;;7.33;63.09;101208.00;4932719;28;124364;-67
2021/01/07 11:18:07;;;;;;;6.05;4.20;;;;;;;7.35;62.93;101200.94;4915343;28;113958;-67
2021/01/07 11:20:38;;;;;;;4.78;3.58;;;;;;;7.37;62.73;101209.66;4914822;28;112911;-67
2021/01/07 11:23:06;;;;;;;5.25;4.00;;;;;;;7.38;62.80;101200.84;4914850;28;123002;-66
2021/01/07 11:25:33;;;;;;;4.85;3.35;;;;;;;7.39;62.58;101197.31;4931801;28;123526;-68